Time;durP1;ratioP1;P1;durP2;ratioP2;P2;SDS_P1;SDS_P2;PMS_P1;PMS_P2;Temp;Humidity;BMP_temperature;BMP_pressure;BME280_temperature;BME280_humidity;BME280_pressure;Samples;Min_cycle;Max_cycle;Signal;HPM_P1;HPM_P2
2022/05/21 00:01:59;;;;;;;6.55;3.90;;;;;;;10.71;100.00;101029.94;5031976;28;20028;-68
2022/05/21 00:04:25;;;;;;;5.75;3.40;;;;;;;10.60;100.00;101018.97;5033297;28;20784;-68
2022/05/21 00:06:50;;;;;;;5.30;3.95;;;;;;;10.14;100.00;100942.00;5031962;28;20549;-68
2022/05/21 00:09:18;;;;;;;5.90;3.92;;;;;;;10.66;100.00;101029.25;5029126;28;20843;-68
2022/05/21 00:11:44;;;;;;;5.82;3.83;;;;;;;10.54;100.00;101024.47;5029391;28;20029;-68
2022/05/21 00:14:09;;;;;;;9.48;4.10;;;;;;;10.58;100.00;101033.94;5028745;28;20097;-67
2022/05/21 00:16:35;;;;;;;8.15;4.72;;;;;;;10.62;100.00;101040.78;5034008;28;20028;-67
2022/05/21 00:19:00;;;;;;;11.77;5.00;;;;;;;10.43;100.00;101010.91;5033784;28;20133;-67
2022/05/21 00:21:25;;;;;;;10.00;4.53;;;;;;;10.40;100.00;101008.41;5032062;28;20033;-67
2022/05/21 00:23:51;;;;;;;6.53;4.75;;;;;;;10.57;100.00;101037.50;5033837;28;20832;-67
2022/05/21 00:26:17;;;;;;;9.65;5.40;;;;;;;10.55;100.00;101023.53;5033690;28;20040;-67
2022/05/21 00:28:44;;;;;;;8.88;4.63;;;;;;;10.56;100.00;101036.63;5032198;28;21014;-68
2022/05/21 00:31:11;;;;;;;8.45;5.55;;;;;;;10.58;100.00;101036.56;5033907;28;20039;-70
2022/05/21 00:33:37;;;;;;;7.88;5.00;;;;;;;10.56;100.00;101033.16;5031697;28;20028;-72
2022/05/21 00:36:03;;;;;;;12.20;5.63;;;;;;;10.49;100.00;101029.06;5033294;28;20063;-69
2022/05/21 00:38:28;;;;;;;9.82;6.30;;;;;;;10.47;100.00;101029.13;5032822;28;20063;-70
2022/05/21 00:40:55;;;;;;;13.30;6.50;;;;;;;10.54;100.00;101040.25;5029202;28;20816;-71
2022/05/21 00:43:35;;;;;;;13.63;7.63;;;;;;;10.53;100.00;101044.66;5035749;28;20028;-70
2022/05/21 00:46:02;;;;;;;11.52;6.70;;;;;;;10.43;100.00;101026.69;5034239;28;20238;-71
2022/05/21 00:48:28;;;;;;;12.93;7.70;;;;;;;10.42;100.00;101019.69;5031630;28;20028;-70
2022/05/21 00:50:53;;;;;;;14.93;6.82;;;;;;;10.46;100.00;101037.91;5033729;28;20424;-70
2022/05/21 00:53:19;;;;;;;9.23;6.63;;;;;;;10.40;100.00;101018.91;5035243;28;20073;-69
2022/05/21 00:55:45;;;;;;;10.43;6.53;;;;;;;10.45;100.00;101043.22;5035222;28;20037;-70
2022/05/21 01:00:58;;;;;;;13.93;7.15;;;;;;;10.39;100.00;101018.06;5031286;28;20047;-69
2022/05/21 01:03:24;;;;;;;8.25;5.95;;;;;;;10.50;100.00;101038.66;5038034;28;20029;-70
2022/05/21 01:05:49;;;;;;;8.45;5.43;;;;;;;10.35;100.00;101023.47;5040938;28;20028;-69
2022/05/21 01:08:16;;;;;;;12.13;6.38;;;;;;;10.48;100.00;101029.97;5033134;28;20036;-69
2022/05/21 01:10:46;;;;;;;9.80;6.20;;;;;;;10.41;100.00;101018.00;5033655;28;20028;-67
2022/05/21 01:13:15;;;;;;;8.27;5.28;;;;;;;10.51;100.00;101035.13;5035842;28;20495;-68
2022/05/21 01:15:43;;;;;;;8.55;4.88;;;;;;;10.43;100.00;101031.94;5033935;28;20056;-69
2022/05/21 01:18:09;;;;;;;10.35;5.25;;;;;;;10.40;100.00;101022.41;5033812;28;20025;-67
2022/05/21 01:20:44;;;;;;;8.25;5.22;;;;;;;10.45;100.00;101036.19;5032102;28;20028;-67
2022/05/21 01:23:10;;;;;;;8.32;4.35;;;;;;;10.43;100.00;101037.19;5034638;28;20044;-67
2022/05/21 01:25:38;;;;;;;5.45;3.95;;;;;;;10.42;100.00;101035.47;5035488;28;20032;-67
2022/05/21 01:28:07;;;;;;;7.97;4.70;;;;;;;10.33;100.00;101020.94;5040942;28;20036;-67
2022/05/21 01:30:44;;;;;;;10.70;4.00;;;;;;;10.38;100.00;101032.09;5048013;28;20056;-68
2022/05/21 01:33:11;;;;;;;6.57;4.07;;;;;;;10.37;100.00;101035.66;5039932;28;20095;-68
2022/05/21 01:35:39;;;;;;;12.88;5.05;;;;;;;10.35;100.00;101034.84;5033812;28;20053;-68
2022/05/21 01:38:05;;;;;;;10.82;4.15;;;;;;;10.19;100.00;101007.47;5033682;28;20938;-68
2022/05/21 01:40:30;;;;;;;5.88;3.53;;;;;;;10.19;100.00;101004.84;5034085;28;20036;-68
2022/05/21 01:45:40;;;;;;;12.18;3.53;;;;;;;10.02;100.00;100987.09;5048778;28;20901;-68
2022/05/21 01:48:06;;;;;;;5.50;3.33;;;;;;;10.21;100.00;101017.00;5053902;28;20032;-69
2022/05/21 01:50:32;;;;;;;7.10;3.60;;;;;;;10.20;100.00;101019.69;5052911;28;20036;-68
2022/05/21 01:52:57;;;;;;;7.28;3.75;;;;;;;10.13;100.00;101019.06;5051522;28;20904;-68
2022/05/21 01:55:23;;;;;;;7.88;4.05;;;;;;;10.12;100.00;101022.59;5043543;28;20139;-68
2022/05/21 01:57:48;;;;;;;7.38;3.58;;;;;;;10.07;100.00;101013.19;5030752;28;20034;-68
2022/05/21 02:00:15;;;;;;;7.43;3.22;;;;;;;10.03;100.00;101004.56;5033333;28;20109;-68
2022/05/21 02:02:40;;;;;;;7.13;3.85;;;;;;;10.10;100.00;101019.16;5032261;28;20089;-69
2022/05/21 02:05:07;;;;;;;7.05;3.00;;;;;;;10.12;100.00;101022.59;5031643;28;20032;-69
2022/05/21 02:07:32;;;;;;;8.43;3.45;;;;;;;10.10;100.00;101024.41;5044654;28;20032;-68
2022/05/21 02:09:57;;;;;;;9.50;3.67;;;;;;;9.85;100.00;100981.63;5053219;28;20741;-68
2022/05/21 02:12:24;;;;;;;7.68;3.38;;;;;;;9.98;100.00;101011.75;5052283;28;20093;-68
2022/05/21 02:14:50;;;;;;;6.60;3.00;;;;;;;9.96;100.00;101016.22;5052750;28;20082;-67
2022/05/21 02:17:16;;;;;;;16.42;4.03;;;;;;;9.96;100.00;101013.59;5053121;28;20044;-67
2022/05/21 02:19:42;;;;;;;10.85;3.40;;;;;;;9.93;100.00;101013.69;5051471;28;20151;-67
2022/05/21 02:22:08;;;;;;;7.38;3.30;;;;;;;9.86;100.00;100998.22;5033134;28;20073;-67
2022/05/21 02:24:33;;;;;;;7.50;3.63;;;;;;;9.88;100.00;101013.00;5037154;28;20032;-68
2022/05/21 02:26:58;;;;;;;4.78;2.78;;;;;;;9.75;100.00;100994.25;5030948;28;20094;-69
2022/05/21 02:29:25;;;;;;;7.57;3.35;;;;;;;9.93;100.00;101032.06;5035008;28;20070;-67
2022/05/21 02:31:51;;;;;;;7.75;3.80;;;;;;;9.91;100.00;101019.91;5039147;28;20036;-67
2022/05/21 02:34:17;;;;;;;8.68;3.42;;;;;;;9.85;100.00;101007.00;5049039;28;20039;-67
2022/05/21 02:39:27;;;;;;;9.27;3.57;;;;;;;9.85;100.00;101002.63;5045144;28;20090;-67
2022/05/21 02:41:53;;;;;;;12.50;4.03;;;;;;;9.74;100.00;100978.53;5032800;28;20289;-67
2022/05/21 02:44:19;;;;;;;11.82;3.85;;;;;;;9.93;100.00;101021.56;5032393;28;20402;-67
2022/05/21 02:46:44;;;;;;;8.85;3.80;;;;;;;9.92;100.00;101017.22;5055358;28;20051;-67
2022/05/21 02:49:09;;;;;;;13.25;3.90;;;;;;;9.97;100.00;101038.91;5030161;28;20034;-66
2022/05/21 02:51:35;;;;;;;8.00;3.33;;;;;;;9.95;100.00;101034.63;5032892;28;20891;-67
2022/05/21 02:54:00;;;;;;;15.50;4.57;;;;;;;9.86;100.00;101020.09;5033961;28;20040;-67
2022/05/21 02:56:25;;;;;;;7.97;4.20;;;;;;;9.87;100.00;101013.91;5046923;28;20887;-68
2022/05/21 02:58:51;;;;;;;6.72;4.28;;;;;;;9.94;100.00;101028.50;5032207;28;20071;-67
2022/05/21 03:01:16;;;;;;;13.27;4.20;;;;;;;9.87;100.00;101013.91;5031788;28;20959;-67
2022/05/21 03:03:41;;;;;;;9.18;3.60;;;;;;;9.95;100.00;101030.25;5032693;28;20770;-68
2022/05/21 03:06:07;;;;;;;5.82;3.42;;;;;;;10.08;100.00;101031.47;5031446;28;20031;-68
2022/05/21 03:11:16;;;;;;;9.85;4.53;;;;;;;10.12;100.00;101021.72;5029296;28;20202;-68
2022/05/21 03:13:42;;;;;;;5.68;3.50;;;;;;;10.24;100.00;101032.63;5030878;28;20951;-69
2022/05/21 03:16:07;;;;;;;6.85;4.28;;;;;;;10.20;100.00;101022.31;5032544;28;20044;-67
2022/05/21 03:18:33;;;;;;;8.88;3.85;;;;;;;10.19;100.00;101021.47;5031354;28;20984;-67
2022/05/21 03:20:58;;;;;;;9.52;3.88;;;;;;;10.09;100.00;100999.06;5032204;28;20035;-67
2022/05/21 03:23:23;;;;;;;8.48;3.70;;;;;;;10.15;100.00;101017.25;5031882;28;20800;-67
2022/05/21 03:25:49;;;;;;;11.35;4.13;;;;;;;10.09;100.00;101006.94;5030582;28;20127;-68
2022/05/21 03:28:16;;;;;;;6.72;3.53;;;;;;;10.15;100.00;101012.00;5030798;28;20542;-67
2022/05/21 03:30:42;;;;;;;15.88;4.68;;;;;;;10.23;100.00;101035.34;5032451;28;20090;-69
2022/05/21 03:33:08;;;;;;;10.93;4.10;;;;;;;10.20;100.00;101041.56;5031844;28;20288;-68
2022/05/21 03:35:33;;;;;;;5.00;3.67;;;;;;;10.11;100.00;101017.38;5032694;28;20131;-67
2022/05/21 03:37:59;;;;;;;9.00;4.43;;;;;;;10.16;100.00;101024.22;5032372;28;20043;-68
2022/05/21 03:40:26;;;;;;;6.70;3.53;;;;;;;10.20;100.00;101043.34;5028247;28;20090;-68
2022/05/21 03:42:52;;;;;;;11.57;4.32;;;;;;;10.06;100.00;101030.69;5028836;28;20039;-68
2022/05/21 03:45:18;;;;;;;10.77;4.78;;;;;;;10.15;100.00;101048.75;5028916;28;20136;-69
2022/05/21 03:47:44;;;;;;;8.43;4.13;;;;;;;10.07;100.00;101031.56;5026568;28;20028;-68
2022/05/21 03:50:11;;;;;;;7.90;4.90;;;;;;;9.88;100.00;101002.50;5026234;28;20898;-68
2022/05/21 03:52:36;;;;;;;12.50;4.95;;;;;;;10.02;100.00;101033.47;5026262;28;20020;-68
2022/05/21 03:55:02;;;;;;;12.13;4.93;;;;;;;10.11;100.00;101036.63;5028442;28;20021;-68
2022/05/21 03:57:28;;;;;;;8.15;4.78;;;;;;;10.04;100.00;101036.91;5028201;28;20947;-67
2022/05/21 03:59:54;;;;;;;11.75;4.40;;;;;;;10.02;100.00;101031.72;5043565;28;20021;-68
2022/05/21 04:02:19;;;;;;;9.65;4.07;;;;;;;10.06;100.00;101040.34;5029138;28;20032;-68
2022/05/21 04:04:45;;;;;;;13.05;4.40;;;;;;;9.95;100.00;101032.00;5028279;28;20028;-68
2022/05/21 04:07:10;;;;;;;5.75;3.47;;;;;;;10.04;100.00;101044.78;5029204;28;20032;-68
2022/05/21 04:09:36;;;;;;;18.23;4.55;;;;;;;10.03;100.00;101048.34;5028690;28;20898;-68
2022/05/21 04:12:03;;;;;;;10.93;4.13;;;;;;;10.05;100.00;101051.75;5029365;28;20846;-68
2022/05/21 04:14:29;;;;;;;17.52;4.40;;;;;;;10.03;100.00;101051.81;5027499;28;20025;-68
2022/05/21 04:16:59;;;;;;;10.25;4.60;;;;;;;10.05;100.00;101057.84;5032423;28;20028;-69
2022/05/21 04:19:25;;;;;;;5.90;3.85;;;;;;;10.00;100.00;101045.81;5032391;28;20067;-68
2022/05/21 04:21:51;;;;;;;9.48;4.50;;;;;;;10.08;100.00;101056.88;5033037;28;20094;-69
2022/05/21 04:24:17;;;;;;;7.53;4.40;;;;;;;10.07;100.00;101066.53;5031642;28;20029;-68
2022/05/21 04:26:43;;;;;;;7.60;4.55;;;;;;;10.16;100.00;101071.47;5032507;28;20032;-68
2022/05/21 04:29:10;;;;;;;8.88;4.20;;;;;;;9.91;100.00;101022.53;5032454;28;20020;-68
2022/05/21 04:31:36;;;;;;;7.00;4.03;;;;;;;10.25;100.00;101076.38;5032770;28;20085;-69
2022/05/21 04:34:02;;;;;;;16.13;4.93;;;;;;;10.33;100.00;101081.34;5030375;28;20566;-69
2022/05/21 04:36:27;;;;;;;9.00;4.07;;;;;;;10.34;100.00;101069.06;5031778;28;20032;-69
2022/05/21 04:38:53;;;;;;;16.75;4.40;;;;;;;10.39;100.00;101069.75;5029954;28;20025;-69
2022/05/21 04:41:19;;;;;;;13.32;4.85;;;;;;;10.44;100.00;101075.69;5057069;28;20949;-68
2022/05/21 04:43:45;;;;;;;8.38;4.15;;;;;;;10.48;100.00;101090.38;5051270;28;20020;-68
2022/05/21 04:46:11;;;;;;;8.77;4.35;;;;;;;10.50;100.00;101085.94;5049741;28;20981;-69
2022/05/21 04:48:37;;;;;;;10.45;4.53;;;;;;;10.56;100.00;101093.59;5048405;28;20085;-69
2022/05/21 04:51:03;;;;;;;11.05;5.32;;;;;;;10.56;100.00;101088.34;5044842;28;20141;-70
2022/05/21 04:53:30;;;;;;;11.82;4.80;;;;;;;10.52;100.00;101077.09;5041676;28;20119;-69
2022/05/21 04:55:55;;;;;;;8.00;4.60;;;;;;;10.64;100.00;101094.16;5043910;28;20075;-68
2022/05/21 04:58:21;;;;;;;14.90;5.72;;;;;;;10.40;100.00;101053.06;5044536;28;20158;-68
2022/05/21 05:00:47;;;;;;;8.60;4.72;;;;;;;10.60;100.00;101087.31;5049438;28;20024;-68
2022/05/21 05:03:14;;;;;;;14.52;4.80;;;;;;;10.69;100.00;101102.69;5050981;28;20129;-68
2022/05/21 05:05:40;;;;;;;6.75;4.18;;;;;;;10.73;100.00;101104.31;5048893;28;20024;-68
2022/05/21 05:08:06;;;;;;;7.25;4.88;;;;;;;10.77;100.00;101111.16;5048683;28;20027;-68
2022/05/21 05:10:32;;;;;;;13.65;5.75;;;;;;;10.49;100.00;101052.69;5051834;28;20027;-68
2022/05/21 05:12:58;;;;;;;9.68;4.53;;;;;;;10.76;100.00;101093.66;5051099;28;20084;-69
2022/05/21 05:15:23;;;;;;;12.10;4.10;;;;;;;10.84;100.00;101112.63;5049986;28;21161;-69
2022/05/21 05:17:49;;;;;;;9.10;4.13;;;;;;;10.87;100.00;101104.63;5049050;28;20056;-69
2022/05/21 05:20:14;;;;;;;10.18;4.28;;;;;;;10.87;100.00;101099.34;5047832;28;21102;-67
2022/05/21 05:22:39;;;;;;;8.85;3.97;;;;;;;10.89;100.00;101100.13;5055353;28;20880;-68
2022/05/21 05:25:06;;;;;;;9.95;5.20;;;;;;;10.96;100.00;101106.88;5055663;28;20918;-68
2022/05/21 05:27:31;;;;;;;8.40;4.30;;;;;;;11.03;100.00;101104.84;5048940;28;20035;-68
2022/05/21 05:29:56;;;;;;;13.63;4.75;;;;;;;11.08;100.00;101124.78;5039172;28;20039;-69
2022/05/21 05:32:22;;;;;;;10.52;4.25;;;;;;;11.04;100.00;101110.06;5030296;28;20032;-68
2022/05/21 05:34:47;;;;;;;11.45;4.95;;;;;;;11.06;100.00;101113.47;5030422;28;20035;-68
2022/05/21 05:37:13;;;;;;;9.45;4.78;;;;;;;10.65;100.00;101032.78;5046195;28;20028;-67
2022/05/21 05:39:38;;;;;;;14.30;5.20;;;;;;;11.09;100.00;101102.81;5028366;28;20036;-68
2022/05/21 05:42:04;;;;;;;6.90;4.40;;;;;;;11.25;100.00;101114.41;5029218;28;20084;-67
2022/05/21 05:44:31;;;;;;;8.57;4.75;;;;;;;11.32;100.00;101104.50;5031036;28;20024;-68
2022/05/21 05:46:57;;;;;;;14.25;5.65;;;;;;;11.40;100.00;101112.94;5029261;28;20079;-68
2022/05/21 05:49:22;;;;;;;14.50;5.13;;;;;;;11.24;100.00;101083.78;5029401;28;20041;-68
2022/05/21 05:51:48;;;;;;;9.82;5.35;;;;;;;11.43;100.00;101107.53;5030078;28;20034;-68
2022/05/21 05:54:13;;;;;;;9.05;5.28;;;;;;;11.63;100.00;101117.19;5028512;28;20054;-67
2022/05/21 05:56:43;;;;;;;15.90;5.28;;;;;;;11.62;100.00;101107.63;5029364;28;20024;-68
2022/05/21 06:02:57;;;;;;;9.27;4.45;;;;;;;11.70;100.00;101097.59;5036075;28;20090;-68
2022/05/21 06:04:40;;;;;;;12.65;5.50;;;;;;;11.87;100.00;101115.31;5027321;28;20040;-67
2022/05/21 06:07:05;;;;;;;10.20;5.13;;;;;;;11.98;100.00;101121.84;5028252;28;20029;-68
2022/05/21 06:09:32;;;;;;;20.27;6.00;;;;;;;11.74;100.00;101064.97;5027865;28;20919;-67
2022/05/21 06:11:58;;;;;;;12.75;5.55;;;;;;;12.11;100.00;101133.53;5027774;28;20949;-67
2022/05/21 06:14:23;;;;;;;14.57;6.82;;;;;;;12.20;100.00;101133.09;5027316;28;20036;-66
2022/05/21 06:16:48;;;;;;;17.02;6.78;;;;;;;12.27;100.00;101125.78;5027165;28;20901;-67
2022/05/21 06:19:14;;;;;;;15.68;5.95;;;;;;;12.39;100.00;101122.59;5042375;28;20086;-67
2022/05/21 06:21:39;;;;;;;10.38;5.43;;;;;;;12.36;100.00;101117.47;5028548;28;20039;-67
2022/05/21 06:24:05;;;;;;;12.75;5.70;;;;;;;12.42;100.00;101132.16;5027956;28;20861;-67
2022/05/21 06:26:30;;;;;;;24.20;7.22;;;;;;;12.43;100.00;101144.41;5029185;28;20167;-67
2022/05/21 06:28:55;;;;;;;15.63;6.15;;;;;;;12.45;100.00;101139.91;5028505;28;20357;-66
2022/05/21 06:31:21;;;;;;;14.10;5.75;;;;;;;12.41;100.00;101136.56;5028220;28;20830;-67
2022/05/21 06:33:46;;;;;;;15.25;6.55;;;;;;;12.59;100.00;101148.03;5026624;28;20862;-67
2022/05/21 06:36:17;;;;;;;17.60;5.90;;;;;;;12.65;100.00;101153.03;5011252;28;20803;-67
2022/05/21 06:38:44;;;;;;;12.95;6.25;;;;;;;12.59;100.00;101142.75;5027155;28;20024;-67
2022/05/21 06:41:10;;;;;;;12.20;6.53;;;;;;;12.62;100.00;101153.16;5051915;28;20028;-67
2022/05/21 06:43:36;;;;;;;11.40;5.82;;;;;;;12.59;100.00;101146.25;5045410;28;20948;-67
2022/05/21 06:46:02;;;;;;;13.90;6.03;;;;;;;12.66;100.00;101146.81;5044879;28;20028;-68
2022/05/21 06:48:27;;;;;;;12.93;5.90;;;;;;;12.75;100.00;101151.66;5048408;28;20811;-68
2022/05/21 06:50:53;;;;;;;17.35;6.57;;;;;;;12.80;100.00;101142.63;5046990;28;20058;-68
2022/05/21 06:53:19;;;;;;;11.65;5.97;;;;;;;12.74;100.00;101126.25;5045372;28;20880;-68
2022/05/21 06:55:44;;;;;;;12.10;5.47;;;;;;;13.00;100.00;101149.59;5047677;28;20051;-68
2022/05/21 06:58:10;;;;;;;14.60;5.55;;;;;;;13.06;100.00;101151.91;5044839;28;20887;-67
2022/05/21 07:00:36;;;;;;;12.32;5.57;;;;;;;12.99;100.00;101132.03;5043148;28;20193;-68
2022/05/21 07:03:02;;;;;;;19.10;5.30;;;;;;;13.12;100.00;101141.09;5046308;28;20089;-68
2022/05/21 07:08:20;;;;;;;14.10;5.68;;;;;;;13.21;100.00;101172.31;5032312;28;20143;-68
2022/05/21 07:10:46;;;;;;;9.93;5.78;;;;;;;13.21;100.00;101153.84;5025785;28;20024;-68
2022/05/21 07:13:12;;;;;;;8.98;4.97;;;;;;;13.06;100.00;101117.63;5026652;28;20035;-67
2022/05/21 07:15:37;;;;;;;10.35;5.00;;;;;;;12.79;100.00;101064.44;5028570;28;20032;-67
2022/05/21 07:18:03;;;;;;;15.52;6.00;;;;;;;13.42;100.00;101151.91;5043607;28;20032;-69
2022/05/21 07:20:29;;;;;;;16.23;6.65;;;;;;;13.55;100.00;101154.81;5028319;28;20034;-69
2022/05/21 07:22:55;;;;;;;12.25;5.43;;;;;;;13.41;100.00;101128.25;5045943;28;20067;-68
2022/05/21 07:25:23;;;;;;;17.08;5.43;;;;;;;13.55;100.00;101150.38;5034183;28;20028;-68
2022/05/21 07:27:49;;;;;;;11.35;6.00;;;;;;;13.69;100.00;101176.09;5035984;28;20032;-71
2022/05/21 07:30:15;;;;;;;14.85;5.78;;;;;;;13.65;100.00;101154.25;5042384;28;20043;-69
2022/05/21 07:32:41;;;;;;;12.55;5.70;;;;;;;13.81;100.00;101159.63;5033842;28;20094;-68
2022/05/21 07:35:11;;;;;;;7.72;4.28;;;;;;;13.89;100.00;101170.66;5028869;28;20024;-67
2022/05/21 07:37:36;;;;;;;14.02;5.55;;;;;;;13.55;100.00;101105.47;5025987;28;20029;-67
2022/05/21 07:40:04;;;;;;;14.15;5.63;;;;;;;14.05;100.00;101166.28;5030421;28;20027;-67
2022/05/21 07:42:29;;;;;;;17.13;6.38;;;;;;;14.06;100.00;101160.06;5049584;28;20028;-66
2022/05/21 07:44:56;;;;;;;17.10;5.40;;;;;;;14.01;100.00;101148.88;5030173;28;20125;-67
2022/05/21 07:47:24;;;;;;;10.85;5.50;;;;;;;13.98;100.00;101164.03;5027931;28;20048;-67
2022/05/21 07:49:52;;;;;;;14.15;5.53;;;;;;;13.94;100.00;101173.91;5028808;28;20908;-68
2022/05/21 07:52:18;;;;;;;10.85;5.88;;;;;;;13.95;100.00;101183.56;5029314;28;20021;-67
2022/05/21 07:54:43;;;;;;;10.38;5.20;;;;;;;14.00;100.00;101184.16;5030612;28;20032;-67
2022/05/21 07:57:08;;;;;;;14.80;5.95;;;;;;;13.99;100.00;101177.16;5030785;28;20032;-67
2022/05/21 07:59:34;;;;;;;10.05;5.45;;;;;;;13.94;100.00;101173.91;5028851;28;20055;-66
2022/05/21 08:01:59;;;;;;;10.73;5.53;;;;;;;14.02;100.00;101181.47;5035694;28;20454;-67
2022/05/21 08:04:25;;;;;;;26.10;6.03;;;;;;;14.15;100.00;101182.53;5026155;28;20039;-68
2022/05/21 08:06:50;;;;;;;8.18;5.00;;;;;;;14.20;100.00;101162.84;5027059;28;20024;-68
2022/05/21 08:09:16;;;;;;;12.50;6.18;;;;;;;14.31;100.00;101146.41;5028107;28;20029;-68
2022/05/21 08:11:42;;;;;;;10.95;5.63;;;;;;;14.67;100.00;101175.31;5027155;28;20029;-68
2022/05/21 08:14:08;;;;;;;10.15;5.72;;;;;;;14.79;100.00;101178.16;5008917;28;20035;-67
2022/05/21 08:16:34;;;;;;;13.15;6.18;;;;;;;15.04;100.00;101196.16;5042613;28;20037;-68
2022/05/21 08:19:01;;;;;;;14.18;5.95;;;;;;;15.09;100.00;101172.94;5028109;28;20186;-68
2022/05/21 08:21:27;;;;;;;13.18;6.07;;;;;;;15.16;100.00;101179.63;5030009;28;20032;-68
2022/05/21 08:29:20;;;;;;;9.40;5.50;;;;;;;14.70;100.00;101191.88;5026779;28;20896;-68
2022/05/21 08:31:45;;;;;;;9.60;5.10;;;;;;;14.55;100.00;101191.88;5026211;28;20099;-68
2022/05/21 08:34:10;;;;;;;20.65;5.95;;;;;;;14.35;100.00;101181.50;5027388;28;20090;-68
2022/05/21 08:36:36;;;;;;;10.35;6.20;;;;;;;14.39;100.00;101188.34;5026961;28;20087;-67
2022/05/21 08:39:02;;;;;;;15.25;5.85;;;;;;;14.32;100.00;101188.63;5025742;28;20094;-68
2022/05/21 08:41:32;;;;;;;13.27;6.47;;;;;;;14.38;100.00;101191.91;5025751;28;20024;-69
2022/05/21 08:44:18;;;;;;;15.95;6.40;;;;;;;14.57;100.00;101195.28;5026199;28;20192;-67
2022/05/21 08:47:12;;;;;;;15.20;5.60;;;;;;;14.76;100.00;101188.06;5025674;28;20024;-67
2022/05/21 08:49:50;;;;;;;10.45;4.55;;;;;;;15.00;100.00;101181.44;5028001;28;20021;-68
2022/05/21 08:52:42;;;;;;;8.07;4.85;;;;;;;15.37;100.00;101200.53;5025739;28;20187;-68
2022/05/21 08:55:11;;;;;;;14.45;5.07;;;;;;;15.58;100.00;101194.03;5025882;28;20570;-68
2022/05/21 08:57:55;;;;;;;12.48;5.18;;;;;;;15.48;100.00;101200.75;5027194;28;20028;-71
2022/05/21 09:00:24;;;;;;;20.23;5.10;;;;;;;15.33;100.00;101200.69;5042933;28;20028;-68
2022/05/21 09:02:50;;;;;;;9.48;5.05;;;;;;;15.15;100.00;101193.78;5029750;28;20208;-68
2022/05/21 09:05:17;;;;;;;12.98;4.55;;;;;;;15.10;100.00;101205.59;5030273;28;20028;-69
2022/05/21 09:08:08;;;;;;;9.75;4.03;;;;;;;15.24;100.00;101203.84;5026829;28;20028;-68
2022/05/21 09:10:48;;;;;;;11.50;4.65;;;;;;;15.36;100.00;101197.00;5049636;28;20050;-69
2022/05/21 09:13:27;;;;;;;9.60;4.15;;;;;;;15.46;100.00;101189.38;5050594;28;20131;-69
2022/05/21 09:18:36;;;;;;;7.93;4.25;;;;;;;15.81;100.00;101174.97;5037383;28;20093;-68
2022/05/21 09:21:08;;;;;;;10.15;4.65;;;;;;;15.99;100.00;101173.84;5042276;28;20028;-67
2022/05/21 09:23:51;;;;;;;11.73;4.45;;;;;;;16.13;100.00;101176.53;5037711;28;20025;-69
2022/05/21 09:26:18;;;;;;;8.82;3.97;;;;;;;16.25;100.00;101181.09;5036933;28;20867;-69
2022/05/21 09:28:44;;;;;;;10.40;4.53;;;;;;;16.16;100.00;101168.38;5039839;28;20028;-69
2022/05/21 09:31:11;;;;;;;9.40;4.40;;;;;;;16.03;100.00;101183.34;5037220;28;20043;-67
2022/05/21 09:33:41;;;;;;;10.90;4.70;;;;;;;15.93;100.00;101182.19;5042270;28;20035;-69
2022/05/21 09:36:08;;;;;;;18.08;4.65;;;;;;;15.92;100.00;101185.78;5036707;28;20077;-67
2022/05/21 09:38:52;;;;;;;12.23;4.47;;;;;;;15.87;100.00;101187.84;5047107;28;20020;-68
2022/05/21 09:41:21;;;;;;;16.75;4.05;;;;;;;15.63;100.00;101173.41;5044684;28;20020;-68
2022/05/21 09:46:41;;;;;;;6.53;3.65;;;;;;;15.52;100.00;101194.34;5061183;28;20047;-68
2022/05/21 09:49:29;;;;;;;8.90;3.97;;;;;;;15.66;100.00;101184.69;5032052;28;20781;-67
2022/05/21 09:52:03;;;;;;;8.10;3.90;;;;;;;15.85;100.00;101182.63;5030133;28;20032;-68
2022/05/21 09:54:40;;;;;;;8.85;3.88;;;;;;;16.03;100.00;101178.03;5028618;28;20214;-67
2022/05/21 09:57:06;;;;;;;7.68;3.42;;;;;;;16.26;100.00;101181.94;5028307;28;20089;-67
2022/05/21 09:59:33;;;;;;;7.75;4.07;;;;;;;16.32;100.00;101179.75;5028495;28;20780;-68
2022/05/21 10:02:01;;;;;;;8.40;4.43;;;;;;;16.36;100.00;101181.28;5026900;28;20024;-68
2022/05/21 10:04:38;;;;;;;17.88;3.47;;;;;;;16.58;100.00;101190.59;5033645;28;20026;-68
2022/05/21 10:10:58;;;;;;;8.60;3.97;;;;;;;16.68;100.00;101192.59;5042128;28;20036;-67
2022/05/21 10:12:46;;;;;;;9.10;3.75;;;;;;;17.17;100.00;101192.09;5047596;28;20078;-68
2022/05/21 10:15:24;;;;;;;7.75;3.97;;;;;;;17.29;100.00;101178.91;5055178;28;20028;-67
2022/05/21 10:17:59;;;;;;;8.50;3.58;;;;;;;17.44;100.00;101192.13;5060135;28;20036;-68
2022/05/21 10:20:52;;;;;;;12.68;4.13;;;;;;;17.42;100.00;101186.91;5055844;28;20082;-68
2022/05/21 10:23:31;;;;;;;5.88;3.22;;;;;;;17.23;100.00;101187.28;5045942;28;20048;-68
2022/05/21 10:26:02;;;;;;;6.78;3.42;;;;;;;16.90;100.00;101189.41;5045589;28;20941;-67
2022/05/21 10:29:01;;;;;;;11.23;4.00;;;;;;;16.52;100.00;101190.97;5033436;28;20072;-68
2022/05/21 10:32:05;;;;;;;6.82;3.92;;;;;;;16.48;100.00;101198.25;5032050;28;20082;-68
2022/05/21 10:35:16;;;;;;;7.97;3.50;;;;;;;16.32;100.00;101190.38;5053806;28;20159;-67
2022/05/21 10:37:56;;;;;;;6.05;3.60;;;;;;;16.61;100.00;101187.75;5039270;28;20829;-66
2022/05/21 10:40:36;;;;;;;8.25;4.15;;;;;;;16.71;100.00;101205.66;5030118;28;20036;-70
2022/05/21 10:43:32;;;;;;;11.68;3.83;;;;;;;16.74;100.00;101184.25;5031057;28;20032;-66
2022/05/21 10:46:09;;;;;;;12.25;3.90;;;;;;;16.88;100.00;101164.78;5049822;28;20143;-67
2022/05/21 10:49:12;;;;;;;9.52;3.17;;;;;;;16.83;100.00;101153.63;5030645;28;20448;-67
2022/05/21 10:52:01;;;;;;;5.40;3.40;;;;;;;16.96;100.00;101175.78;5028214;28;20029;-67
2022/05/21 10:55:03;;;;;;;7.30;3.08;;;;;;;17.30;100.00;101196.53;5031153;28;20063;-68
2022/05/21 10:57:37;;;;;;;5.97;3.53;;;;;;;17.07;100.00;101198.97;5030941;28;20033;-67
2022/05/21 11:00:09;;;;;;;11.73;3.63;;;;;;;16.90;100.00;101197.38;5031311;28;20025;-68
2022/05/21 11:03:02;;;;;;;6.95;3.40;;;;;;;16.96;100.00;101201.47;5030864;28;20040;-68
2022/05/21 11:06:01;;;;;;;7.20;3.47;;;;;;;17.23;100.00;101199.69;5044023;28;20084;-67
2022/05/21 11:08:48;;;;;;;5.78;3.40;;;;;;;17.75;100.00;101197.13;5024376;28;20036;-67
2022/05/21 11:11:45;;;;;;;11.50;3.42;;;;;;;18.17;100.00;101188.91;5042248;28;20025;-67
2022/05/21 11:14:42;;;;;;;8.52;3.78;;;;;;;18.30;100.00;101168.47;5028844;28;20139;-67
2022/05/21 11:17:22;;;;;;;6.15;3.58;;;;;;;18.74;99.54;101193.78;5027051;28;20042;-68
2022/05/21 11:19:58;;;;;;;10.95;4.15;;;;;;;18.93;100.00;101170.19;5027432;28;20039;-67
2022/05/21 11:22:37;;;;;;;12.13;4.03;;;;;;;19.42;99.50;101186.13;5025529;28;20039;-68
2022/05/21 11:25:22;;;;;;;5.78;3.20;;;;;;;19.29;98.52;101195.97;5024788;28;20447;-67
2022/05/21 11:28:15;;;;;;;11.38;3.92;;;;;;;19.01;98.00;101189.13;5027469;28;20036;-68
2022/05/21 11:30:41;;;;;;;7.07;4.00;;;;;;;18.47;96.37;101164.63;5027926;28;20029;-68
2022/05/21 11:38:48;;;;;;;;;;;;;;;17.85;100.00;101176.94;5028953;28;20063;-68
2022/05/21 11:41:25;;;;;;;7.40;3.40;;;;;;;17.55;100.00;101177.16;5040549;28;19951;-68
2022/05/21 11:47:12;;;;;;;10.50;3.78;;;;;;;17.74;100.00;101163.53;5042222;28;20055;-67
2022/05/21 11:49:44;;;;;;;12.93;4.90;;;;;;;18.02;100.00;101173.97;5028807;28;20032;-67
2022/05/21 11:52:27;;;;;;;9.68;4.05;;;;;;;19.00;100.00;101168.78;5026396;28;20945;-68
2022/05/21 11:54:53;;;;;;;6.97;3.60;;;;;;;19.50;94.49;101177.56;5027486;28;20090;-67
2022/05/21 11:57:41;;;;;;;9.07;3.67;;;;;;;19.91;97.00;101177.94;5028155;28;20080;-69
2022/05/21 12:00:29;;;;;;;6.90;3.70;;;;;;;20.66;92.04;101186.28;5037818;28;20043;-68
2022/05/21 12:02:54;;;;;;;8.13;4.40;;;;;;;21.57;89.32;101184.19;5027805;28;20024;-68
2022/05/21 12:05:37;;;;;;;7.90;4.03;;;;;;;22.61;84.45;101182.34;5027287;28;20912;-67